Time;durP1;ratioP1;P1;durP2;ratioP2;P2;SDS_P1;SDS_P2;PMS_P1;PMS_P2;Temp;Humidity;BMP_temperature;BMP_pressure;BME280_temperature;BME280_humidity;BME280_pressure;Samples;Min_cycle;Max_cycle;Signal;HPM_P1;HPM_P2
2022/08/16 00:01:33;;;;;;;4.17;2.83;;;19.00;99.90;;;;;;5094698;28;20313;-39
2022/08/16 00:03:59;;;;;;;4.13;2.97;;;19.00;99.90;;;;;;5094781;28;20628;-40
2022/08/16 00:06:24;;;;;;;5.57;2.57;;;18.90;99.90;;;;;;5094770;28;20178;-40
2022/08/16 00:08:50;;;;;;;5.77;2.93;;;18.90;99.90;;;;;;5094636;28;20175;-40
2022/08/16 00:11:16;;;;;;;3.70;2.77;;;18.80;99.90;;;;;;5094506;28;20201;-39
2022/08/16 00:13:44;;;;;;;3.00;2.67;;;18.80;99.90;;;;;;5095060;28;20631;-38
2022/08/16 00:16:10;;;;;;;3.60;2.70;;;18.70;99.90;;;;;;5094407;28;20678;-42
2022/08/16 00:18:36;;;;;;;4.10;3.00;;;18.70;99.90;;;;;;5094701;28;20185;-40
2022/08/16 00:21:01;;;;;;;3.20;2.60;;;18.70;99.90;;;;;;5095196;28;20252;-41
2022/08/16 00:23:27;;;;;;;4.67;2.80;;;18.70;99.90;;;;;;5094241;28;20217;-41
2022/08/16 00:25:52;;;;;;;3.67;2.70;;;18.70;99.90;;;;;;5094257;28;20211;-38
2022/08/16 00:28:18;;;;;;;4.63;3.20;;;18.70;99.90;;;;;;5094802;28;20171;-41
2022/08/16 00:30:43;;;;;;;3.53;2.70;;;18.70;99.90;;;;;;5094152;28;20195;-41
2022/08/16 00:33:09;;;;;;;3.37;2.87;;;18.60;99.90;;;;;;5094479;28;20179;-41
2022/08/16 00:35:36;;;;;;;3.60;2.67;;;18.60;99.90;;;;;;5094770;28;20216;-40
2022/08/16 00:38:03;;;;;;;2.70;2.17;;;18.60;99.90;;;;;;5094246;28;20178;-38
2022/08/16 00:40:41;;;;;;;4.60;2.80;;;18.60;99.90;;;;;;5094102;28;20297;-39
2022/08/16 00:43:13;;;;;;;3.60;2.80;;;18.60;99.90;;;;;;5094485;28;20558;-40
2022/08/16 00:46:11;;;;;;;6.47;2.70;;;18.60;99.90;;;;;;5094464;28;20167;-39
2022/08/16 00:48:38;;;;;;;2.80;2.60;;;18.60;99.90;;;;;;5094247;28;20175;-40
2022/08/16 00:51:05;;;;;;;5.40;2.87;;;18.60;99.90;;;;;;5093757;28;20215;-40
2022/08/16 00:53:31;;;;;;;4.70;2.83;;;18.60;99.90;;;;;;5093811;28;20642;-40
2022/08/16 00:56:01;;;;;;;5.87;2.50;;;18.50;99.90;;;;;;5093781;28;20175;-40
2022/08/16 00:58:29;;;;;;;3.93;2.73;;;18.50;99.90;;;;;;5094320;28;20174;-42
2022/08/16 01:00:55;;;;;;;3.17;2.63;;;18.40;99.90;;;;;;5093499;28;20206;-41
2022/08/16 01:03:26;;;;;;;2.83;2.60;;;18.40;99.90;;;;;;5093586;28;20704;-40
2022/08/16 01:05:52;;;;;;;3.13;2.90;;;18.40;99.90;;;;;;5093658;28;20159;-40
2022/08/16 01:08:20;;;;;;;4.10;2.97;;;18.30;99.90;;;;;;5093900;28;20174;-37
2022/08/16 01:10:47;;;;;;;7.10;3.37;;;18.30;99.90;;;;;;5093730;28;20202;-39
2022/08/16 01:13:24;;;;;;;4.10;2.93;;;18.20;99.90;;;;;;5093789;28;20179;-39
2022/08/16 01:15:54;;;;;;;4.63;2.83;;;18.20;99.90;;;;;;5093521;28;20297;-42
2022/08/16 01:18:23;;;;;;;4.10;2.63;;;18.10;99.90;;;;;;5093789;28;20246;-40
2022/08/16 01:21:03;;;;;;;3.07;2.77;;;18.00;99.90;;;;;;5093377;28;20286;-40
2022/08/16 01:23:47;;;;;;;3.00;2.60;;;18.00;99.90;;;;;;5093718;28;20206;-39
2022/08/16 01:26:13;;;;;;;4.63;2.93;;;17.90;99.90;;;;;;5093749;28;20253;-41
2022/08/16 01:28:40;;;;;;;6.03;2.73;;;17.90;99.90;;;;;;5093650;28;20174;-39
2022/08/16 01:31:07;;;;;;;3.67;2.70;;;17.90;99.90;;;;;;5093302;28;20199;-38
2022/08/16 01:33:33;;;;;;;4.10;2.50;;;17.90;99.90;;;;;;5093590;28;20179;-39
2022/08/16 01:36:03;;;;;;;3.30;2.60;;;17.80;99.90;;;;;;5075324;28;20174;-40
2022/08/16 01:38:32;;;;;;;3.67;2.50;;;17.80;99.90;;;;;;5093596;28;20167;-40
2022/08/16 01:41:02;;;;;;;2.73;2.53;;;17.80;99.90;;;;;;5093792;28;20195;-39
2022/08/16 01:43:30;;;;;;;4.40;2.80;;;17.60;99.90;;;;;;5093117;28;20213;-40
2022/08/16 01:45:57;;;;;;;5.27;2.87;;;17.60;99.90;;;;;;5093209;28;20186;-40
2022/08/16 01:48:28;;;;;;;4.13;2.70;;;17.70;99.90;;;;;;5075528;28;20193;-39
2022/08/16 01:50:55;;;;;;;3.77;2.70;;;17.60;99.90;;;;;;5092993;28;20195;-37
2022/08/16 01:53:20;;;;;;;5.87;2.83;;;17.60;99.90;;;;;;5093501;28;20178;-40
2022/08/16 01:55:46;;;;;;;4.97;2.60;;;17.60;99.90;;;;;;5093459;28;20190;-40
2022/08/16 01:58:14;;;;;;;4.57;2.83;;;17.60;99.90;;;;;;5093167;28;20221;-39
2022/08/16 02:00:40;;;;;;;4.67;2.83;;;17.60;99.90;;;;;;5093024;28;20666;-40
2022/08/16 02:03:06;;;;;;;4.67;2.77;;;17.60;99.90;;;;;;5093336;28;20252;-40
2022/08/16 02:05:32;;;;;;;3.30;2.73;;;17.50;99.90;;;;;;5093359;28;20179;-40
2022/08/16 02:07:58;;;;;;;3.73;3.13;;;17.60;99.90;;;;;;5093363;28;20232;-39
2022/08/16 02:10:24;;;;;;;3.77;3.00;;;17.50;99.90;;;;;;5093237;28;20604;-40
2022/08/16 02:12:50;;;;;;;4.37;2.80;;;17.50;99.90;;;;;;5095480;28;20182;-41
2022/08/16 02:15:19;;;;;;;5.03;2.77;;;17.50;99.90;;;;;;5096996;28;20733;-39
2022/08/16 02:17:44;;;;;;;4.60;2.90;;;17.50;99.90;;;;;;5096784;28;20686;-39
2022/08/16 02:20:10;;;;;;;3.47;2.60;;;17.50;99.90;;;;;;5097254;28;20262;-40
2022/08/16 02:22:36;;;;;;;3.70;2.73;;;17.40;99.90;;;;;;5096693;28;20170;-39
2022/08/16 02:25:07;;;;;;;4.63;3.10;;;17.40;99.90;;;;;;5096801;28;20542;-40
2022/08/16 02:27:32;;;;;;;6.10;3.00;;;17.40;99.90;;;;;;5096953;28;20646;-39
2022/08/16 02:29:58;;;;;;;3.37;3.07;;;17.40;99.90;;;;;;5097036;28;20180;-42
2022/08/16 02:32:24;;;;;;;3.63;2.77;;;17.40;99.90;;;;;;5078379;28;20183;-39
2022/08/16 02:34:49;;;;;;;3.03;2.60;;;17.40;99.90;;;;;;5096742;28;20186;-40
2022/08/16 02:37:16;;;;;;;3.83;2.80;;;17.40;99.90;;;;;;5096451;28;20267;-38
2022/08/16 02:39:41;;;;;;;3.30;2.53;;;17.40;99.90;;;;;;5096396;28;20221;-39
2022/08/16 02:42:07;;;;;;;5.70;3.37;;;17.40;99.90;;;;;;5096295;28;20202;-38
2022/08/16 02:44:32;;;;;;;3.03;2.80;;;17.40;99.90;;;;;;5096483;28;20205;-39
2022/08/16 02:46:58;;;;;;;3.47;3.10;;;17.40;99.90;;;;;;5078208;28;20199;-41
2022/08/16 02:49:24;;;;;;;3.77;3.00;;;17.40;99.90;;;;;;5096266;28;20210;-38
2022/08/16 02:51:49;;;;;;;4.50;3.20;;;17.30;99.90;;;;;;5096137;28;20198;-40
2022/08/16 02:54:15;;;;;;;4.07;2.97;;;17.30;99.90;;;;;;5096114;28;20219;-39
2022/08/16 02:56:41;;;;;;;4.97;3.40;;;17.30;99.90;;;;;;5077946;28;20187;-40
2022/08/16 02:59:07;;;;;;;4.40;3.10;;;17.30;99.90;;;;;;5096010;28;20222;-38
2022/08/16 03:01:34;;;;;;;3.17;2.90;;;17.20;99.90;;;;;;5096124;28;20203;-39
2022/08/16 03:04:02;;;;;;;4.87;3.40;;;17.20;99.90;;;;;;5096181;28;20206;-40
2022/08/16 03:06:29;;;;;;;3.77;2.97;;;17.20;99.90;;;;;;5096290;28;20183;-42
2022/08/16 03:08:54;;;;;;;3.60;3.13;;;17.10;99.90;;;;;;5095865;28;20232;-40
2022/08/16 03:11:20;;;;;;;3.27;2.97;;;17.10;99.90;;;;;;5097069;28;20191;-39
2022/08/16 03:13:49;;;;;;;4.13;3.17;;;17.00;99.90;;;;;;5095844;28;20668;-41
2022/08/16 03:16:15;;;;;;;3.67;2.97;;;17.00;99.90;;;;;;5095655;28;20209;-39
2022/08/16 03:18:41;;;;;;;3.03;2.83;;;17.00;99.90;;;;;;5095724;28;20187;-40
2022/08/16 03:21:08;;;;;;;7.93;4.00;;;16.90;99.90;;;;;;5095632;28;20214;-38
2022/08/16 03:23:34;;;;;;;4.17;3.20;;;16.90;99.90;;;;;;5095816;28;20202;-42
2022/08/16 03:26:00;;;;;;;4.37;3.27;;;16.90;99.90;;;;;;5077619;28;20190;-41
2022/08/16 03:28:25;;;;;;;5.10;2.97;;;16.80;99.90;;;;;;5095586;28;20178;-41
2022/08/16 03:30:51;;;;;;;4.00;2.97;;;16.80;99.90;;;;;;5077276;28;20198;-44
2022/08/16 03:33:17;;;;;;;3.17;2.87;;;16.80;99.90;;;;;;5095747;28;20186;-42
2022/08/16 03:35:43;;;;;;;4.50;3.73;;;16.80;99.90;;;;;;5095619;28;20186;-43
2022/08/16 03:38:12;;;;;;;4.10;2.80;;;16.80;99.90;;;;;;5095613;28;20189;-43
2022/08/16 03:40:39;;;;;;;5.27;3.30;;;16.70;99.90;;;;;;5095139;28;20206;-42
2022/08/16 03:43:08;;;;;;;3.50;2.83;;;16.70;99.90;;;;;;5095394;28;20298;-42
2022/08/16 03:45:36;;;;;;;3.23;2.90;;;16.70;99.90;;;;;;5094760;28;20236;-42
2022/08/16 03:48:02;;;;;;;5.23;2.90;;;16.70;99.90;;;;;;5095460;28;20577;-41
2022/08/16 03:50:28;;;;;;;3.63;3.10;;;16.60;99.90;;;;;;5095053;28;20248;-43
2022/08/16 03:52:54;;;;;;;3.33;2.97;;;16.60;99.90;;;;;;5095270;28;20544;-42
2022/08/16 03:55:21;;;;;;;3.37;3.07;;;16.50;99.90;;;;;;5094998;28;20218;-42
2022/08/16 03:57:48;;;;;;;5.63;3.10;;;16.60;99.90;;;;;;5077193;28;20194;-42
2022/08/16 04:00:24;;;;;;;6.07;3.03;;;16.50;99.90;;;;;;5095410;28;20179;-43
2022/08/16 04:02:53;;;;;;;5.27;3.43;;;16.50;99.90;;;;;;5095368;28;20220;-42
2022/08/16 04:05:18;;;;;;;4.13;3.30;;;16.50;99.90;;;;;;5095320;28;20175;-41
2022/08/16 04:07:44;;;;;;;3.50;3.20;;;16.40;99.90;;;;;;5095371;28;20230;-40
2022/08/16 04:10:11;;;;;;;3.70;3.40;;;16.40;99.90;;;;;;5094931;28;20544;-41
2022/08/16 04:12:38;;;;;;;3.67;2.90;;;16.30;99.90;;;;;;5094902;28;20183;-42
2022/08/16 04:15:06;;;;;;;4.43;3.17;;;16.30;99.90;;;;;;5094797;28;20209;-41
2022/08/16 04:17:32;;;;;;;3.20;2.80;;;16.30;99.90;;;;;;5094844;28;20313;-42
2022/08/16 04:20:06;;;;;;;4.07;3.37;;;16.20;99.90;;;;;;5076719;28;20212;-42
2022/08/16 04:22:31;;;;;;;4.17;3.10;;;16.20;99.90;;;;;;5094944;28;20626;-42
2022/08/16 04:24:57;;;;;;;5.33;3.17;;;16.20;99.90;;;;;;5095035;28;20203;-41
2022/08/16 04:27:23;;;;;;;5.13;3.17;;;16.10;99.90;;;;;;5095090;28;20171;-41
2022/08/16 04:29:48;;;;;;;3.70;3.20;;;16.10;99.90;;;;;;5094807;28;20217;-41
2022/08/16 04:32:15;;;;;;;3.83;3.20;;;16.10;99.90;;;;;;5095810;28;20281;-42
2022/08/16 04:34:40;;;;;;;6.17;3.37;;;16.10;99.90;;;;;;5095403;28;20232;-42
2022/08/16 04:37:07;;;;;;;3.93;3.50;;;16.10;99.90;;;;;;5094794;28;20187;-42
2022/08/16 04:39:34;;;;;;;3.50;3.20;;;16.10;99.90;;;;;;5094341;28;20595;-42
2022/08/16 04:42:00;;;;;;;4.80;3.43;;;16.10;99.90;;;;;;5094387;28;20198;-42
2022/08/16 04:44:26;;;;;;;3.40;3.10;;;16.10;99.90;;;;;;5094621;28;20210;-42
2022/08/16 04:46:52;;;;;;;4.03;3.63;;;16.10;99.90;;;;;;5096114;28;20622;-41
2022/08/16 04:49:18;;;;;;;4.87;3.60;;;16.10;99.90;;;;;;5094719;28;20175;-41
2022/08/16 04:51:44;;;;;;;4.03;3.37;;;16.10;99.90;;;;;;5094373;28;20565;-41
2022/08/16 04:54:10;;;;;;;6.10;3.50;;;16.20;99.90;;;;;;5094207;28;20198;-42
2022/08/16 04:56:37;;;;;;;3.87;3.47;;;16.10;99.90;;;;;;5094367;28;20174;-40
2022/08/16 04:59:03;;;;;;;4.50;3.40;;;16.10;99.90;;;;;;5076571;28;20207;-42
2022/08/16 05:01:29;;;;;;;4.93;3.17;;;16.20;99.90;;;;;;5094157;28;20293;-41
2022/08/16 05:03:54;;;;;;;4.27;3.50;;;16.20;99.90;;;;;;5094311;28;20305;-41
2022/08/16 05:06:20;;;;;;;4.17;3.77;;;16.20;99.90;;;;;;5094099;28;20183;-41
2022/08/16 05:08:46;;;;;;;5.93;3.50;;;16.20;99.90;;;;;;5093970;28;20540;-42
2022/08/16 05:11:13;;;;;;;4.40;3.23;;;16.20;99.90;;;;;;5093905;28;20240;-42
2022/08/16 05:13:43;;;;;;;3.63;3.33;;;16.30;99.90;;;;;;5093899;28;20269;-42
2022/08/16 05:16:12;;;;;;;4.40;3.27;;;16.30;99.90;;;;;;5094066;28;20203;-40
2022/08/16 05:18:38;;;;;;;3.70;3.40;;;16.30;99.90;;;;;;5095606;28;20182;-41
2022/08/16 05:21:03;;;;;;;4.93;3.17;;;16.40;99.90;;;;;;5093753;28;20198;-42
2022/08/16 05:23:29;;;;;;;3.97;3.57;;;16.30;99.90;;;;;;5094295;28;20195;-43
2022/08/16 05:25:54;;;;;;;5.30;3.70;;;16.40;99.90;;;;;;5093795;28;20166;-41
2022/08/16 05:28:20;;;;;;;4.13;3.73;;;16.40;99.90;;;;;;5094006;28;20630;-43
2022/08/16 05:30:46;;;;;;;5.20;3.70;;;16.50;99.90;;;;;;5093775;28;20789;-41
2022/08/16 05:33:12;;;;;;;5.33;3.87;;;16.50;99.90;;;;;;5093747;28;20182;-43
2022/08/16 05:35:38;;;;;;;6.90;4.57;;;16.60;99.90;;;;;;5093683;28;20190;-42
2022/08/16 05:38:03;;;;;;;5.17;4.60;;;16.60;99.90;;;;;;5093723;28;20664;-42
2022/08/16 05:40:29;;;;;;;6.60;5.00;;;16.70;99.90;;;;;;5093600;28;20206;-43
2022/08/16 05:42:55;;;;;;;9.80;4.37;;;16.70;99.90;;;;;;5093777;28;20175;-41
2022/08/16 05:45:21;;;;;;;7.40;4.17;;;16.80;99.90;;;;;;5075493;28;20179;-44
2022/08/16 05:47:46;;;;;;;6.67;4.70;;;16.80;99.90;;;;;;5097581;28;20183;-41
2022/08/16 05:50:12;;;;;;;11.37;5.17;;;17.00;99.90;;;;;;5097613;28;20175;-41
2022/08/16 05:52:37;;;;;;;12.30;5.50;;;17.10;99.90;;;;;;5097756;28;20178;-42
2022/08/16 05:55:04;;;;;;;11.83;4.70;;;17.20;99.90;;;;;;5098135;28;20189;-43
2022/08/16 05:57:30;;;;;;;6.57;4.50;;;17.30;99.90;;;;;;5098256;28;20195;-42
2022/08/16 05:59:56;;;;;;;11.83;5.00;;;17.40;99.90;;;;;;5098648;28;20185;-40
2022/08/16 06:02:26;;;;;;;10.23;4.30;;;17.50;99.90;;;;;;5097983;28;20202;-42
2022/08/16 06:04:52;;;;;;;4.67;4.23;;;17.60;99.90;;;;;;5097727;28;20218;-41
2022/08/16 06:07:18;;;;;;;7.47;4.80;;;17.80;99.90;;;;;;5097522;28;20214;-43
2022/08/16 06:09:43;;;;;;;6.93;4.40;;;17.80;99.90;;;;;;5097426;28;20210;-41
2022/08/16 06:12:13;;;;;;;9.03;5.27;;;17.90;99.90;;;;;;5097248;28;20203;-41
2022/08/16 06:14:38;;;;;;;7.20;4.80;;;18.10;99.90;;;;;;5097345;28;20534;-42
2022/08/16 06:17:04;;;;;;;14.70;4.93;;;18.30;99.90;;;;;;5097486;28;20174;-42
2022/08/16 06:19:31;;;;;;;5.57;4.67;;;18.40;99.90;;;;;;5097184;28;20591;-43
2022/08/16 06:21:58;;;;;;;5.80;4.70;;;18.60;99.90;;;;;;5079520;28;20207;-44
2022/08/16 06:24:24;;;;;;;11.77;5.53;;;18.80;99.90;;;;;;5097250;28;20652;-41
2022/08/16 06:26:50;;;;;;;15.60;5.40;;;18.90;99.90;;;;;;5097350;28;20183;-41
2022/08/16 06:29:16;;;;;;;14.83;5.23;;;19.10;99.90;;;;;;5097181;28;20634;-43
2022/08/16 06:31:41;;;;;;;7.10;4.43;;;19.30;99.90;;;;;;5097256;28;20252;-41
2022/08/16 06:34:07;;;;;;;4.83;4.43;;;19.40;99.90;;;;;;5096940;28;20189;-41
2022/08/16 06:36:34;;;;;;;7.57;4.83;;;19.60;99.90;;;;;;5078708;28;20183;-42
2022/08/16 06:39:00;;;;;;;8.10;4.90;;;19.80;99.90;;;;;;5082588;28;20211;-41
2022/08/16 06:41:26;;;;;;;7.63;5.13;;;19.90;99.90;;;;;;5081538;28;20264;-42
2022/08/16 06:43:53;;;;;;;5.43;4.80;;;20.10;99.90;;;;;;5096882;28;20215;-41
2022/08/16 06:46:26;;;;;;;6.73;4.67;;;20.30;99.90;;;;;;5079257;28;20182;-41
2022/08/16 06:48:52;;;;;;;6.03;5.10;;;20.50;99.90;;;;;;5097135;28;20179;-40
2022/08/16 06:51:18;;;;;;;6.53;4.87;;;20.60;99.90;;;;;;5096672;28;20199;-41
2022/08/16 06:53:43;;;;;;;6.20;4.90;;;20.70;99.90;;;;;;5096644;28;20321;-42
2022/08/16 06:56:09;;;;;;;5.30;4.40;;;20.90;99.90;;;;;;5096490;28;20186;-42
2022/08/16 06:58:35;;;;;;;5.63;4.77;;;21.10;99.90;;;;;;5095966;28;20171;-41
2022/08/16 07:01:01;;;;;;;6.77;5.20;;;21.30;99.90;;;;;;5096091;28;20191;-41
2022/08/16 07:03:29;;;;;;;5.60;5.03;;;21.60;99.90;;;;;;5096408;28;20214;-41
2022/08/16 07:05:56;;;;;;;8.73;4.47;;;21.70;99.90;;;;;;5096384;28;20183;-42
2022/08/16 07:08:24;;;;;;;7.40;4.80;;;22.00;99.90;;;;;;5096688;28;20179;-42
2022/08/16 07:10:50;;;;;;;5.60;4.83;;;22.10;99.90;;;;;;5096359;28;20217;-42
2022/08/16 07:13:15;;;;;;;6.73;4.90;;;22.20;99.90;;;;;;5096165;28;20192;-42
2022/08/16 07:15:41;;;;;;;6.23;4.97;;;22.40;99.90;;;;;;5096279;28;20190;-42
2022/08/16 07:18:09;;;;;;;6.83;5.33;;;22.60;99.90;;;;;;5096205;28;20190;-42
2022/08/16 07:20:36;;;;;;;5.93;4.67;;;22.70;99.90;;;;;;5096261;28;20560;-43
2022/08/16 07:23:03;;;;;;;8.00;4.90;;;22.80;99.90;;;;;;5096353;28;20206;-42
2022/08/16 07:25:29;;;;;;;6.37;4.73;;;22.90;99.90;;;;;;5096132;28;20175;-41
2022/08/16 07:27:54;;;;;;;5.27;4.77;;;23.10;99.90;;;;;;5096163;28;20523;-41
2022/08/16 07:30:20;;;;;;;8.83;5.20;;;23.20;99.90;;;;;;5095940;28;20562;-42
2022/08/16 07:32:49;;;;;;;8.53;5.40;;;23.30;99.90;;;;;;5096005;28;20183;-42
2022/08/16 07:35:15;;;;;;;5.50;4.63;;;23.40;99.90;;;;;;5096014;28;20179;-41
2022/08/16 07:37:40;;;;;;;5.20;4.67;;;23.40;99.90;;;;;;5095980;28;20182;-39
2022/08/16 07:40:07;;;;;;;6.13;4.50;;;23.50;99.90;;;;;;5095796;28;20175;-38
2022/08/16 07:42:32;;;;;;;5.80;5.20;;;23.70;99.90;;;;;;5095940;28;20224;-38
2022/08/16 07:44:58;;;;;;;5.57;4.90;;;23.80;99.90;;;;;;5095735;28;20210;-37
2022/08/16 07:47:24;;;;;;;5.97;5.37;;;24.10;99.90;;;;;;5095605;28;20179;-37
2022/08/16 07:49:50;;;;;;;7.93;5.50;;;24.20;99.90;;;;;;5095563;28;20182;-39
2022/08/16 07:52:15;;;;;;;5.43;4.77;;;24.40;99.90;;;;;;5095799;28;20187;-38
2022/08/16 07:54:42;;;;;;;9.10;4.93;;;24.40;99.90;;;;;;5095458;28;20202;-39
2022/08/16 07:57:07;;;;;;;6.53;4.73;;;24.60;99.90;;;;;;5095770;28;20218;-37
2022/08/16 07:59:33;;;;;;;6.60;4.70;;;24.70;99.90;;;;;;5095681;28;20213;-38
2022/08/16 08:01:58;;;;;;;6.87;4.93;;;24.80;99.90;;;;;;5095140;28;20199;-38
2022/08/16 08:04:25;;;;;;;6.60;5.17;;;25.00;99.90;;;;;;5095117;28;20210;-38
2022/08/16 08:06:51;;;;;;;9.87;5.00;;;25.10;99.90;;;;;;5095457;28;20543;-38
2022/08/16 08:09:16;;;;;;;5.27;4.60;;;25.20;99.90;;;;;;5094419;28;20179;-37
2022/08/16 08:11:44;;;;;;;11.60;5.13;;;25.40;99.90;;;;;;5095299;28;20198;-38
2022/08/16 08:14:11;;;;;;;7.57;5.13;;;25.50;99.90;;;;;;5095003;28;20686;-39
2022/08/16 08:16:37;;;;;;;6.90;5.13;;;25.50;99.90;;;;;;5095045;28;20281;-39
2022/08/16 08:19:03;;;;;;;11.10;5.30;;;25.50;99.90;;;;;;5094864;28;20205;-37
2022/08/16 08:21:32;;;;;;;7.97;5.50;;;25.60;99.90;;;;;;5095009;28;20263;-40
2022/08/16 08:23:57;;;;;;;8.40;5.53;;;25.70;99.90;;;;;;5095628;28;20541;-39
2022/08/16 08:26:24;;;;;;;6.70;5.57;;;25.80;99.90;;;;;;5094774;28;20274;-39
2022/08/16 08:28:49;;;;;;;6.93;5.43;;;25.80;99.90;;;;;;5094858;28;20182;-39
2022/08/16 08:31:15;;;;;;;9.60;6.23;;;26.00;99.90;;;;;;5094708;28;20203;-40
2022/08/16 08:33:41;;;;;;;6.07;5.10;;;26.00;99.90;;;;;;5094956;28;20690;-39
2022/08/16 08:36:13;;;;;;;11.30;5.70;;;26.10;99.90;;;;;;5094559;28;20274;-40
2022/08/16 08:38:39;;;;;;;8.17;4.77;;;26.20;99.90;;;;;;5095265;28;20190;-39
2022/08/16 08:41:06;;;;;;;10.33;5.00;;;26.30;99.90;;;;;;5094595;28;20234;-39
2022/08/16 08:43:33;;;;;;;6.67;4.70;;;26.50;99.90;;;;;;5094418;28;20710;-40
2022/08/16 08:45:59;;;;;;;11.03;5.30;;;26.70;99.90;;;;;;5094438;28;20205;-38
2022/08/16 08:48:25;;;;;;;7.27;5.20;;;26.80;99.90;;;;;;5094487;28;20199;-40
2022/08/16 08:50:50;;;;;;;6.33;4.53;;;26.80;99.90;;;;;;5097466;28;20560;-38
2022/08/16 08:53:16;;;;;;;6.30;5.17;;;27.00;99.90;;;;;;5094528;28;20198;-40
2022/08/16 08:55:41;;;;;;;9.63;5.67;;;27.20;99.90;;;;;;5094337;28;20575;-38
2022/08/16 08:58:08;;;;;;;10.03;4.83;;;27.40;99.90;;;;;;5094935;28;20182;-39
2022/08/16 09:00:37;;;;;;;14.53;5.43;;;27.50;99.90;;;;;;5094340;28;20279;-40
2022/08/16 09:03:02;;;;;;;7.10;4.77;;;27.50;99.90;;;;;;5094882;28;20507;-39
2022/08/16 09:05:28;;;;;;;7.33;4.60;;;27.60;99.90;;;;;;5094139;28;20186;-40
2022/08/16 09:07:55;;;;;;;12.10;4.27;;;27.70;99.90;;;;;;5094238;28;20181;-39
2022/08/16 09:10:21;;;;;;;5.07;4.20;;;27.60;99.90;;;;;;5094417;28;20190;-38
2022/08/16 09:12:47;;;;;;;5.93;4.00;;;27.70;99.90;;;;;;5094259;28;20179;-38
2022/08/16 09:15:14;;;;;;;9.03;4.40;;;27.80;99.90;;;;;;5093892;28;20217;-38
2022/08/16 09:17:41;;;;;;;9.50;4.73;;;27.90;99.90;;;;;;5094191;28;20717;-38
2022/08/16 09:20:09;;;;;;;6.40;4.30;;;28.10;99.90;;;;;;5094162;28;20182;-38
2022/08/16 09:22:39;;;;;;;8.57;4.90;;;28.20;99.90;;;;;;5075483;28;20243;-40
2022/08/16 09:25:05;;;;;;;10.30;5.27;;;28.20;99.90;;;;;;5059626;28;20584;-38
2022/08/16 09:27:31;;;;;;;5.90;4.07;;;28.20;99.90;;;;;;5094217;28;20249;-41
2022/08/16 09:29:57;;;;;;;7.47;4.50;;;28.20;99.90;;;;;;5094055;28;20183;-39
2022/08/16 09:32:25;;;;;;;7.70;4.47;;;28.40;99.90;;;;;;5093785;28;20321;-39
2022/08/16 09:34:50;;;;;;;5.37;4.33;;;28.50;99.90;;;;;;5094217;28;20185;-40
2022/08/16 09:37:16;;;;;;;7.87;4.70;;;28.60;99.90;;;;;;5075686;28;20186;-40
2022/08/16 09:39:43;;;;;;;5.83;4.20;;;28.70;99.90;;;;;;5093679;28;20181;-39
2022/08/16 09:42:09;;;;;;;7.00;4.37;;;28.80;99.90;;;;;;5093627;28;20203;-38
2022/08/16 09:44:35;;;;;;;6.70;4.50;;;28.90;99.90;;;;;;5094229;28;20237;-40
2022/08/16 09:47:01;;;;;;;7.13;4.90;;;28.90;99.90;;;;;;5093596;28;20178;-39
2022/08/16 09:49:26;;;;;;;7.33;4.77;;;28.90;99.90;;;;;;5094155;28;20187;-38
2022/08/16 09:51:53;;;;;;;5.07;4.10;;;28.90;99.90;;;;;;5093412;28;20190;-38
2022/08/16 09:54:20;;;;;;;6.77;3.80;;;28.90;99.90;;;;;;5093804;28;20193;-41
2022/08/16 09:56:47;;;;;;;9.27;4.73;;;28.90;99.90;;;;;;5075688;28;20190;-38
2022/08/16 09:59:14;;;;;;;6.60;4.80;;;28.90;99.90;;;;;;5093302;28;20232;-39
2022/08/16 10:01:41;;;;;;;4.70;4.13;;;29.00;99.90;;;;;;5093388;28;20210;-40
2022/08/16 10:04:07;;;;;;;8.27;4.07;;;28.90;99.90;;;;;;5093280;28;20241;-41
2022/08/16 10:06:33;;;;;;;6.67;4.40;;;28.80;99.90;;;;;;5093104;28;20179;-40
2022/08/16 10:08:59;;;;;;;5.40;3.87;;;28.80;99.90;;;;;;5093107;28;20178;-39
2022/08/16 10:14:09;;;;;;;7.72;3.72;;;29.10;99.90;;;;;;5093353;28;20273;-38
2022/08/16 10:16:35;;;;;;;7.40;4.57;;;29.30;99.90;;;;;;5092966;28;20631;-40
2022/08/16 10:19:01;;;;;;;8.05;4.93;;;29.50;99.90;;;;;;5093216;28;20167;-40
2022/08/16 10:21:27;;;;;;;10.40;4.28;;;29.40;99.90;;;;;;5093283;28;20197;-38
2022/08/16 10:23:53;;;;;;;4.70;3.80;;;29.40;99.90;;;;;;5093178;28;20203;-39
2022/08/16 10:26:20;;;;;;;6.50;3.20;;;29.50;99.90;;;;;;5093205;28;20244;-40
2022/08/16 10:28:46;;;;;;;4.35;3.35;;;29.60;99.90;;;;;;5092935;28;20198;-40
2022/08/16 10:31:12;;;;;;;5.07;3.42;;;29.80;99.90;;;;;;5093102;28;20194;-40
2022/08/16 10:33:38;;;;;;;3.45;3.15;;;29.90;99.90;;;;;;5094628;28;20649;-40
2022/08/16 10:36:06;;;;;;;3.83;3.25;;;29.80;99.90;;;;;;5096428;28;20670;-38
2022/08/16 10:38:35;;;;;;;4.22;3.50;;;29.80;99.90;;;;;;5096741;28;20552;-40
2022/08/16 10:41:00;;;;;;;7.60;3.42;;;29.90;99.90;;;;;;5096441;28;20198;-40
2022/08/16 10:43:27;;;;;;;4.80;3.42;;;30.00;99.90;;;;;;5096363;28;20634;-39
2022/08/16 10:45:53;;;;;;;3.58;3.20;;;30.20;99.90;;;;;;5096288;28;20179;-40
2022/08/16 10:48:19;;;;;;;8.40;3.80;;;30.40;99.90;;;;;;5096326;28;20589;-38
2022/08/16 10:50:44;;;;;;;6.80;3.10;;;30.60;99.90;;;;;;5096417;28;20194;-39
2022/08/16 10:53:10;;;;;;;8.43;3.70;;;30.70;99.90;;;;;;5096976;28;20224;-41
2022/08/16 10:55:38;;;;;;;5.22;3.50;;;30.90;99.90;;;;;;5096453;28;20181;-39
2022/08/16 10:58:05;;;;;;;4.68;3.65;;;31.10;99.90;;;;;;5096382;28;20201;-40
2022/08/16 11:00:32;;;;;;;6.30;3.60;;;31.20;99.90;;;;;;5095950;28;20202;-38
2022/08/16 11:03:02;;;;;;;4.05;3.40;;;31.20;99.90;;;;;;5095900;28;20194;-40
2022/08/16 11:05:30;;;;;;;6.43;3.05;;;31.20;99.90;;;;;;5095916;28;20170;-41
2022/08/16 11:07:56;;;;;;;4.80;2.78;;;31.30;99.90;;;;;;5095921;28;20194;-40
2022/08/16 11:10:27;;;;;;;10.70;2.67;;;31.10;98.80;;;;;;5096100;28;20199;-40
2022/08/16 11:12:53;;;;;;;4.75;2.85;;;30.90;98.40;;;;;;5096120;28;20159;-40
2022/08/16 11:15:19;;;;;;;3.72;3.08;;;30.70;98.90;;;;;;5095902;28;20202;-40
2022/08/16 11:17:47;;;;;;;4.25;2.75;;;30.60;99.90;;;;;;5095817;28;20523;-40
2022/08/16 11:20:16;;;;;;;3.80;2.75;;;30.60;99.90;;;;;;5078186;28;20186;-40
2022/08/16 11:22:42;;;;;;;3.05;2.53;;;30.70;98.60;;;;;;5095874;28;20182;-39
2022/08/16 11:25:09;;;;;;;3.55;2.70;;;30.70;99.60;;;;;;5095526;28;20233;-40
2022/08/16 11:27:35;;;;;;;5.07;2.67;;;30.80;99.70;;;;;;5095824;28;20171;-41
2022/08/16 11:30:00;;;;;;;3.78;3.03;;;30.90;98.20;;;;;;5095533;28;20175;-40
2022/08/16 11:32:28;;;;;;;5.32;2.90;;;31.00;98.50;;;;;;5095769;28;20214;-39
2022/08/16 11:34:55;;;;;;;4.47;2.58;;;31.10;99.40;;;;;;5077398;28;20189;-41
2022/08/16 11:37:21;;;;;;;4.13;2.58;;;31.20;99.70;;;;;;5095330;28;20182;-40
2022/08/16 11:39:47;;;;;;;3.17;2.75;;;31.40;99.90;;;;;;5095350;28;20186;-39
2022/08/16 11:42:12;;;;;;;5.05;3.00;;;31.70;99.90;;;;;;5095203;28;20574;-39
2022/08/16 11:44:38;;;;;;;5.65;2.90;;;31.90;99.00;;;;;;5095188;28;20207;-39
2022/08/16 11:47:04;;;;;;;4.50;2.70;;;32.00;98.50;;;;;;5095146;28;20657;-40
2022/08/16 11:49:29;;;;;;;7.13;3.25;;;32.20;98.70;;;;;;5095174;28;20223;-40
2022/08/16 11:51:55;;;;;;;3.22;2.78;;;32.30;98.10;;;;;;5094976;28;20197;-40
2022/08/16 11:54:20;;;;;;;4.38;2.88;;;32.20;97.00;;;;;;5095111;28;20232;-38
2022/08/16 11:56:46;;;;;;;4.85;2.88;;;32.10;97.50;;;;;;5095168;28;20225;-40
2022/08/16 11:59:12;;;;;;;4.40;2.58;;;31.90;96.70;;;;;;5095114;28;20699;-41
2022/08/16 12:01:37;;;;;;;4.63;2.53;;;31.70;95.50;;;;;;5094840;28;20203;-40
2022/08/16 12:04:03;;;;;;;7.05;2.60;;;31.50;96.40;;;;;;5094808;28;20206;-40
2022/08/16 12:06:29;;;;;;;3.78;2.55;;;31.50;95.80;;;;;;5094823;28;20707;-40
2022/08/16 12:08:59;;;;;;;3.67;2.45;;;31.40;96.80;;;;;;5094774;28;20210;-40
2022/08/16 12:11:25;;;;;;;10.45;3.22;;;31.40;96.40;;;;;;5095035;28;20626;-41
2022/08/16 12:13:52;;;;;;;13.68;2.63;;;31.30;95.60;;;;;;5095031;28;20266;-40
2022/08/16 12:16:18;;;;;;;6.20;3.10;;;31.30;96.90;;;;;;5094640;28;20278;-40
2022/08/16 12:18:45;;;;;;;7.07;2.88;;;31.30;96.20;;;;;;5094578;28;20707;-40
2022/08/16 12:21:11;;;;;;;6.57;2.67;;;31.30;97.10;;;;;;5094778;28;20264;-40
2022/08/16 12:23:37;;;;;;;4.97;2.50;;;31.30;95.50;;;;;;5094443;28;20205;-40
2022/08/16 12:26:02;;;;;;;5.63;2.95;;;31.30;96.10;;;;;;5094470;28;20171;-40
2022/08/16 12:28:31;;;;;;;2.70;2.50;;;31.30;96.20;;;;;;5095013;28;20228;-44
2022/08/16 12:30:57;;;;;;;3.45;2.72;;;31.50;97.10;;;;;;5076998;28;20202;-44
2022/08/16 12:33:23;;;;;;;4.22;2.85;;;31.70;95.90;;;;;;5094669;28;20174;-45
2022/08/16 12:35:48;;;;;;;5.20;2.90;;;31.70;97.20;;;;;;5094269;28;20234;-45
2022/08/16 12:38:14;;;;;;;3.13;2.80;;;31.80;96.40;;;;;;5094194;28;20182;-44
2022/08/16 12:40:43;;;;;;;6.00;3.03;;;31.80;95.60;;;;;;5094083;28;20666;-44
2022/08/16 12:43:12;;;;;;;5.38;3.10;;;31.90;96.00;;;;;;5094415;28;20177;-46
2022/08/16 12:45:42;;;;;;;2.80;2.40;;;32.00;95.50;;;;;;5094046;28;20177;-45